Rosalind, Canada
Current Conditions -  °F | °C
As of 2:00 AM on Monday 20 Oct 2014 (Local Time) from CYEG Reporting Station
Scattered Clouds Scattered Clouds  
Wind Chill: 32°   Ceiling: Unl
Heat Index: 37°   Visibility: 15mi
Dew Point: 34°   Wind: 7mph
Humidity: 87%   Direction: 160°SSE
Pressure: 29.58"   Gusts: NA
Location:  52.78°N, 112.45°W
Report Text: CYEG 200800Z 16006KT 15SM SCT260 03/01 A2958 RMK CI3 SLP031
Loading
Personal Weather Stations






























Interactive Weather Map
Tropical Storm Tracking
New forecast layout! Learn more

10-Day Weather Forecast

Advertisements
Track Severe Weather on mobile